Time;durP1;ratioP1;P1;durP2;ratioP2;P2;SDS_P1;SDS_P2;PMS_P1;PMS_P2;Temp;Humidity;BMP_temperature;BMP_pressure;BME280_temperature;BME280_humidity;BME280_pressure;Samples;Min_cycle;Max_cycle;Signal;HPM_P1;HPM_P2
2021/08/26 00:00:08;;;;;;;8.43;4.47;;;;;;;22.51;60.26;100796.31;5043187;28;20397;-67
2021/08/26 00:08:08;;;;;;;10.55;5.05;;;;;;;22.37;60.64;100793.22;5043375;28;20070;-68
2021/08/26 00:10:38;;;;;;;7.88;4.50;;;;;;;22.46;60.49;100794.69;5042826;28;20048;-69
2021/08/26 00:13:06;;;;;;;8.55;4.70;;;;;;;22.48;60.49;100798.22;5037306;28;20470;-68
2021/08/26 00:15:34;;;;;;;9.77;4.78;;;;;;;22.38;60.79;100799.47;5021781;28;20037;-68
2021/08/26 00:18:01;;;;;;;8.57;4.70;;;;;;;22.34;60.55;100789.72;5027041;28;20041;-68
2021/08/26 00:20:30;;;;;;;9.60;4.82;;;;;;;22.26;60.92;100785.47;5029404;28;20041;-68
2021/08/26 00:22:58;;;;;;;8.05;4.28;;;;;;;22.34;60.48;100787.03;5020635;28;20045;-68
2021/08/26 00:25:25;;;;;;;10.05;5.00;;;;;;;22.35;60.43;100784.31;5025564;28;20049;-68
2021/08/26 00:27:53;;;;;;;8.30;5.30;;;;;;;22.30;60.60;100783.59;5027292;28;20061;-68
2021/08/26 00:30:21;;;;;;;9.32;4.90;;;;;;;22.31;60.65;100782.66;5028092;28;20415;-69
2021/08/26 00:32:49;;;;;;;7.80;4.90;;;;;;;22.23;60.61;100782.00;5025831;28;20091;-68
2021/08/26 00:35:16;;;;;;;9.18;5.60;;;;;;;22.23;60.70;100788.28;5027693;28;20045;-68
2021/08/26 00:37:45;;;;;;;10.25;5.20;;;;;;;22.32;60.82;100787.06;5037613;28;20037;-68
2021/08/26 00:40:13;;;;;;;9.75;5.13;;;;;;;22.35;60.94;100788.81;5045450;28;20037;-68
2021/08/26 00:42:42;;;;;;;10.45;5.13;;;;;;;22.36;60.48;100779.81;5031359;28;20163;-67
2021/08/26 00:45:12;;;;;;;8.95;5.20;;;;;;;22.29;60.50;100789.88;5023353;28;20045;-67
2021/08/26 00:47:44;;;;;;;8.43;4.85;;;;;;;22.11;61.17;100793.16;5025793;28;20503;-68
2021/08/26 00:50:12;;;;;;;6.75;4.68;;;;;;;22.10;61.20;100780.66;5026160;28;20033;-67
2021/08/26 00:52:40;;;;;;;11.27;4.78;;;;;;;22.11;61.10;100779.72;5027194;28;20030;-68
2021/08/26 00:55:11;;;;;;;9.45;4.72;;;;;;;22.09;61.04;100782.44;5024604;28;20064;-68
2021/08/26 00:57:38;;;;;;;8.63;5.28;;;;;;;21.99;61.47;100783.66;5019351;28;20737;-68
2021/08/26 01:00:09;;;;;;;8.30;4.90;;;;;;;22.01;61.41;100784.50;5024937;28;20406;-68
2021/08/26 01:02:44;;;;;;;13.27;5.43;;;;;;;22.04;61.39;100786.22;5025629;28;20038;-68
2021/08/26 01:05:19;;;;;;;10.35;5.57;;;;;;;22.03;61.58;100787.13;5028885;28;20046;-68
2021/08/26 01:07:56;;;;;;;11.48;5.28;;;;;;;22.07;61.79;100780.72;5024912;28;20045;-68
2021/08/26 01:10:26;;;;;;;9.45;5.68;;;;;;;21.93;62.31;100782.91;5025258;28;20064;-68
2021/08/26 01:12:56;;;;;;;11.68;5.57;;;;;;;21.88;62.77;100781.25;5024905;28;20033;-68
2021/08/26 01:15:26;;;;;;;9.48;5.35;;;;;;;21.86;62.67;100783.13;5023827;28;20034;-68
2021/08/26 01:17:54;;;;;;;12.73;6.40;;;;;;;21.78;63.42;100778.91;5022781;28;20034;-68
2021/08/26 01:20:24;;;;;;;9.32;5.63;;;;;;;21.70;63.49;100776.47;5024533;28;20042;-68
2021/08/26 01:22:52;;;;;;;8.02;5.13;;;;;;;21.67;63.33;100778.34;5021778;28;20048;-68
2021/08/26 01:25:23;;;;;;;8.43;5.43;;;;;;;21.63;63.33;100776.69;5028792;28;20045;-68
2021/08/26 01:27:55;;;;;;;9.35;5.18;;;;;;;21.46;63.64;100778.03;5023955;28;20049;-68
2021/08/26 01:30:24;;;;;;;7.93;5.55;;;;;;;21.56;62.93;100777.78;5028110;28;20048;-68
2021/08/26 01:32:53;;;;;;;9.57;5.15;;;;;;;21.58;62.78;100773.25;5024146;28;20049;-68
2021/08/26 01:35:22;;;;;;;9.40;5.32;;;;;;;21.48;63.17;100778.88;5024055;28;20048;-69
2021/08/26 01:37:51;;;;;;;7.28;5.05;;;;;;;21.51;63.13;100775.25;5025875;28;20056;-68
2021/08/26 01:40:31;;;;;;;10.85;5.47;;;;;;;21.62;62.86;100772.22;5026883;28;20045;-68
2021/08/26 01:43:00;;;;;;;12.40;5.22;;;;;;;21.71;62.49;100766.59;5023849;28;20706;-68
2021/08/26 01:45:28;;;;;;;10.57;5.53;;;;;;;21.70;62.45;100771.09;5027059;28;20625;-68
2021/08/26 01:47:56;;;;;;;9.35;5.57;;;;;;;21.63;62.81;100774.88;5026326;28;20115;-68
2021/08/26 01:50:23;;;;;;;8.27;5.22;;;;;;;21.46;63.27;100769.97;5025369;28;20060;-68
2021/08/26 01:52:51;;;;;;;10.43;5.03;;;;;;;21.41;63.36;100769.25;5027326;28;20053;-69
2021/08/26 01:55:19;;;;;;;9.73;5.65;;;;;;;21.42;63.40;100776.38;5025810;28;20048;-68
2021/08/26 01:57:47;;;;;;;9.15;5.68;;;;;;;21.40;63.52;100775.53;5030323;28;20060;-68
2021/08/26 02:00:18;;;;;;;9.77;6.50;;;;;;;21.40;63.42;100780.91;5028627;28;21920;-68
2021/08/26 02:02:46;;;;;;;10.70;5.45;;;;;;;21.40;63.42;100780.91;5029628;28;20037;-68
2021/08/26 02:05:14;;;;;;;12.27;5.97;;;;;;;21.44;63.26;100774.53;5027984;28;20056;-68
2021/08/26 02:07:45;;;;;;;10.27;6.22;;;;;;;21.47;63.44;100777.13;5027930;28;20041;-68
2021/08/26 02:10:13;;;;;;;9.82;5.97;;;;;;;21.34;63.56;100782.88;5031467;28;20091;-68
2021/08/26 02:12:40;;;;;;;10.18;6.38;;;;;;;21.33;63.57;100773.94;5030630;28;20064;-68
2021/08/26 02:15:09;;;;;;;8.02;5.43;;;;;;;21.30;63.32;100776.72;5029959;28;20045;-68
2021/08/26 02:17:39;;;;;;;8.75;5.60;;;;;;;21.13;64.03;100776.31;5018125;28;20044;-68
2021/08/26 02:20:08;;;;;;;11.20;5.97;;;;;;;21.14;64.02;100779.84;5021983;28;20041;-68
2021/08/26 02:22:36;;;;;;;10.82;6.00;;;;;;;21.20;64.08;100787.78;5026520;28;20426;-68
2021/08/26 02:25:06;;;;;;;10.57;5.90;;;;;;;21.23;63.83;100785.00;5029964;28;20037;-68
2021/08/26 02:27:33;;;;;;;10.02;5.75;;;;;;;21.22;63.54;100777.84;5025564;28;20040;-68
2021/08/26 02:30:01;;;;;;;8.75;5.88;;;;;;;21.18;63.50;100782.44;5026486;28;20383;-68
2021/08/26 02:32:29;;;;;;;9.25;5.93;;;;;;;21.14;63.73;100777.16;5028661;28;20049;-67
2021/08/26 02:34:59;;;;;;;8.88;5.82;;;;;;;21.14;63.79;100779.84;5029808;28;20069;-67
2021/08/26 02:37:27;;;;;;;9.52;5.65;;;;;;;21.13;63.51;100776.31;5027395;28;20398;-68
2021/08/26 02:39:55;;;;;;;10.35;5.82;;;;;;;21.07;63.87;100781.81;5029862;28;20034;-68
2021/08/26 02:42:23;;;;;;;11.68;6.20;;;;;;;20.97;63.94;100778.50;5029412;28;20041;-68
2021/08/26 02:44:50;;;;;;;10.38;5.63;;;;;;;20.88;64.01;100773.38;5029028;28;20052;-68
2021/08/26 02:47:18;;;;;;;10.02;5.57;;;;;;;20.93;63.80;100773.28;5028843;28;20048;-68
2021/08/26 02:49:45;;;;;;;9.90;6.18;;;;;;;20.94;63.49;100773.19;5029500;28;20034;-68
2021/08/26 02:52:14;;;;;;;10.15;5.88;;;;;;;21.01;63.55;100768.56;5028010;28;20045;-68
2021/08/26 02:54:42;;;;;;;8.88;5.28;;;;;;;21.02;63.29;100773.88;5028738;28;20053;-68
2021/08/26 02:57:11;;;;;;;9.60;5.63;;;;;;;20.92;63.37;100779.56;5028126;28;20037;-68
2021/08/26 02:59:39;;;;;;;10.07;6.05;;;;;;;20.92;63.62;100780.44;5028559;28;20044;-67
2021/08/26 03:02:06;;;;;;;9.43;6.25;;;;;;;20.89;63.78;100774.25;5027860;28;20037;-68
2021/08/26 03:04:36;;;;;;;8.73;5.72;;;;;;;20.89;63.14;100771.56;5029534;28;20046;-68
2021/08/26 03:07:04;;;;;;;9.45;5.70;;;;;;;20.83;63.38;100777.97;5028067;28;20045;-68
2021/08/26 03:09:37;;;;;;;10.57;5.90;;;;;;;20.78;63.04;100774.53;5024170;28;20125;-67
2021/08/26 03:12:06;;;;;;;10.07;5.90;;;;;;;20.76;63.18;100771.00;5020449;28;20042;-68
2021/08/26 03:14:34;;;;;;;12.15;5.72;;;;;;;20.75;63.03;100776.41;5025354;28;20139;-68
2021/08/26 03:17:01;;;;;;;10.40;5.75;;;;;;;20.70;62.95;100779.22;5029819;28;20521;-68
2021/08/26 03:19:28;;;;;;;7.95;5.20;;;;;;;20.70;63.20;100779.22;5026990;28;20407;-67
2021/08/26 03:21:56;;;;;;;8.38;4.88;;;;;;;20.74;62.67;100786.28;5026205;28;20041;-68
2021/08/26 03:24:23;;;;;;;8.38;5.25;;;;;;;20.74;62.39;100782.72;5030811;28;20037;-68
2021/08/26 03:26:52;;;;;;;8.05;4.72;;;;;;;20.77;62.23;100785.31;5025495;28;20376;-68
2021/08/26 03:29:20;;;;;;;8.13;4.50;;;;;;;20.75;62.11;100784.47;5029365;28;20609;-68
2021/08/26 03:31:48;;;;;;;8.77;4.85;;;;;;;20.67;61.97;100790.06;5030060;28;20041;-68
2021/08/26 03:34:16;;;;;;;10.00;5.07;;;;;;;20.64;61.88;100785.63;5025813;28;20049;-68
2021/08/26 03:36:43;;;;;;;14.73;5.60;;;;;;;20.63;61.51;100786.53;5029619;28;20034;-68
2021/08/26 03:39:11;;;;;;;8.52;4.65;;;;;;;20.67;61.33;100793.63;5028693;28;20052;-68
2021/08/26 03:41:38;;;;;;;11.00;4.55;;;;;;;20.58;61.36;100791.16;5027421;28;20045;-68
2021/08/26 03:44:09;;;;;;;10.80;4.82;;;;;;;20.57;61.12;100794.75;5029217;28;20057;-68
2021/08/26 03:46:37;;;;;;;9.27;4.93;;;;;;;20.58;61.36;100792.94;5025993;28;20042;-68
2021/08/26 03:49:04;;;;;;;8.68;4.63;;;;;;;20.61;61.10;100803.63;5028691;28;20037;-68
2021/08/26 03:51:32;;;;;;;8.93;4.57;;;;;;;20.61;60.65;100793.75;5027888;28;20045;-68
2021/08/26 03:54:00;;;;;;;9.10;4.68;;;;;;;20.66;60.73;100794.53;5027727;28;20049;-68
2021/08/26 03:56:27;;;;;;;10.20;4.60;;;;;;;20.71;60.37;100797.09;5027011;28;20399;-68
2021/08/26 03:58:55;;;;;;;9.15;4.50;;;;;;;20.74;60.62;100793.47;5021078;28;20538;-67
2021/08/26 04:01:24;;;;;;;8.23;4.13;;;;;;;20.78;60.31;100793.34;5025504;28;20545;-69
2021/08/26 04:03:51;;;;;;;10.20;4.38;;;;;;;20.79;59.88;100791.53;5029342;28;20037;-68
2021/08/26 04:06:19;;;;;;;7.32;4.07;;;;;;;20.80;60.08;100787.94;5028898;28;20049;-68
2021/08/26 04:08:47;;;;;;;9.30;4.63;;;;;;;20.92;59.85;100795.66;5028323;28;20503;-68
2021/08/26 04:11:15;;;;;;;6.55;3.70;;;;;;;21.08;59.44;100783.56;5024149;28;20512;-68
2021/08/26 04:13:43;;;;;;;8.85;3.75;;;;;;;21.20;59.33;100791.31;5007932;28;20570;-68
2021/08/26 04:16:12;;;;;;;10.77;4.20;;;;;;;21.26;58.47;100791.19;5022108;28;20055;-68
2021/08/26 04:18:41;;;;;;;5.68;3.60;;;;;;;21.33;58.67;100791.88;5039983;28;20049;-68
2021/08/26 04:21:09;;;;;;;8.73;3.30;;;;;;;21.46;58.58;100794.16;5025583;28;20049;-69
2021/08/26 04:23:36;;;;;;;6.00;3.30;;;;;;;21.63;57.99;100804.44;5024750;28;20034;-68
2021/08/26 04:26:04;;;;;;;6.13;3.20;;;;;;;21.79;57.90;100794.97;5028997;28;20045;-69
2021/08/26 04:28:31;;;;;;;5.75;3.33;;;;;;;21.93;57.63;100810.69;5028068;28;20041;-69
2021/08/26 04:30:59;;;;;;;6.97;2.95;;;;;;;22.05;56.69;100802.31;5025392;28;20044;-68
2021/08/26 04:33:26;;;;;;;7.32;3.53;;;;;;;22.15;56.51;100810.94;5026444;28;20046;-68
2021/08/26 04:35:55;;;;;;;7.50;3.03;;;;;;;22.34;56.07;100813.94;5019669;28;20041;-68
2021/08/26 04:38:23;;;;;;;5.00;2.60;;;;;;;22.52;55.27;100810.66;5015695;28;20053;-68
2021/08/26 04:40:50;;;;;;;5.10;2.83;;;;;;;22.77;54.44;100805.38;5021964;28;20045;-68
2021/08/26 04:43:18;;;;;;;6.63;3.00;;;;;;;22.97;53.93;100806.44;5020194;28;20049;-68
2021/08/26 04:45:45;;;;;;;5.80;2.80;;;;;;;23.16;53.90;100808.50;5027318;28;20037;-69
2021/08/26 04:48:13;;;;;;;6.43;2.75;;;;;;;23.35;53.91;100804.22;5027394;28;20498;-69
2021/08/26 04:50:40;;;;;;;7.38;3.10;;;;;;;23.50;53.94;100803.66;5023868;28;20698;-69
2021/08/26 04:53:10;;;;;;;6.28;2.90;;;;;;;23.68;53.54;100791.34;5023376;28;20516;-69
2021/08/26 04:55:37;;;;;;;7.75;3.10;;;;;;;23.88;53.59;100802.25;5025610;28;20037;-69
2021/08/26 04:58:04;;;;;;;10.05;2.85;;;;;;;24.07;53.20;100807.78;5026855;28;20049;-69
2021/08/26 05:00:33;;;;;;;6.38;2.85;;;;;;;24.25;53.26;100808.91;5025357;28;20060;-69
2021/08/26 05:03:04;;;;;;;7.32;2.90;;;;;;;24.38;52.49;100807.47;5029123;28;20045;-69
2021/08/26 05:05:31;;;;;;;7.55;2.78;;;;;;;24.51;52.10;100809.63;5026988;28;20044;-69
2021/08/26 05:07:59;;;;;;;6.32;2.30;;;;;;;24.66;51.30;100802.72;5025910;28;20041;-69
2021/08/26 05:10:28;;;;;;;8.45;2.42;;;;;;;24.79;51.03;100803.06;5024971;28;20538;-69
2021/08/26 05:12:55;;;;;;;5.13;2.47;;;;;;;25.04;50.84;100803.81;5026371;28;20042;-69
2021/08/26 05:15:23;;;;;;;4.90;2.47;;;;;;;25.34;50.57;100805.13;5023805;28;20046;-69
2021/08/26 05:17:50;;;;;;;6.35;2.60;;;;;;;25.57;50.26;100801.44;5023564;28;20434;-69
2021/08/26 05:20:18;;;;;;;7.32;3.25;;;;;;;25.79;49.49;100793.22;5024965;28;20041;-70
2021/08/26 05:22:45;;;;;;;5.55;2.63;;;;;;;26.05;48.96;100798.28;5028503;28;20037;-69
2021/08/26 05:25:13;;;;;;;5.85;2.42;;;;;;;26.34;47.93;100799.59;5026377;28;20045;-69
2021/08/26 05:27:42;;;;;;;5.45;2.10;;;;;;;26.60;47.38;100801.00;5027448;28;20045;-69
2021/08/26 05:30:10;;;;;;;5.07;2.20;;;;;;;26.86;47.04;100799.69;5027844;28;20055;-69
2021/08/26 05:32:38;;;;;;;8.32;2.40;;;;;;;26.94;46.42;100795.69;5025406;28;20049;-70
2021/08/26 05:35:06;;;;;;;5.55;2.60;;;;;;;27.21;45.62;100792.47;5027022;28;20411;-69
2021/08/26 05:37:34;;;;;;;4.68;2.40;;;;;;;27.52;45.64;100792.63;5023225;28;20092;-70
2021/08/26 05:40:02;;;;;;;6.88;2.45;;;;;;;27.80;44.66;100792.00;5020963;28;20133;-69
2021/08/26 05:42:29;;;;;;;5.15;2.70;;;;;;;28.07;43.71;100795.88;5022308;28;20111;-69
2021/08/26 05:44:58;;;;;;;5.55;2.45;;;;;;;28.36;42.82;100790.66;5022484;28;20588;-69
2021/08/26 05:47:25;;;;;;;5.93;2.50;;;;;;;28.60;42.20;100797.41;5023759;28;20052;-69
2021/08/26 05:49:53;;;;;;;7.85;2.90;;;;;;;28.73;41.81;100795.72;5022814;28;20041;-69
2021/08/26 05:52:22;;;;;;;6.57;2.13;;;;;;;29.04;41.00;100793.91;5021710;28;20125;-69
2021/08/26 05:54:49;;;;;;;7.28;2.30;;;;;;;29.27;40.71;100796.09;5019191;28;20037;-73
2021/08/26 05:57:16;;;;;;;8.93;3.40;;;;;;;29.56;40.33;100805.19;5022709;28;20037;-72
2021/08/26 05:59:44;;;;;;;4.10;2.15;;;;;;;29.84;39.73;100791.59;5022658;28;20053;-71
2021/08/26 06:02:13;;;;;;;5.18;2.20;;;;;;;30.08;38.41;100806.38;5026612;28;20037;-72
2021/08/26 06:04:41;;;;;;;5.60;2.17;;;;;;;30.32;37.54;100797.59;5018092;28;20046;-71
2021/08/26 06:07:08;;;;;;;6.53;2.30;;;;;;;30.52;37.25;100802.63;5027070;28;20051;-71
2021/08/26 06:09:35;;;;;;;4.75;2.25;;;;;;;30.60;37.25;100804.81;5019609;28;20037;-70
2021/08/26 06:12:04;;;;;;;4.00;2.38;;;;;;;30.86;36.27;100793.91;5022853;28;20042;-71
2021/08/26 06:14:31;;;;;;;3.15;1.90;;;;;;;31.16;34.35;100803.75;5015312;28;20041;-70
2021/08/26 06:16:59;;;;;;;4.03;1.85;;;;;;;31.39;32.38;100800.25;5005176;28;20068;-70
2021/08/26 06:19:28;;;;;;;3.03;1.70;;;;;;;31.57;31.37;100790.75;5017001;28;20045;-71
2021/08/26 06:21:55;;;;;;;3.15;1.70;;;;;;;31.77;30.26;100796.72;5013291;28;20058;-72
2021/08/26 06:24:23;;;;;;;5.15;2.58;;;;;;;32.00;29.35;100799.50;5012325;28;20498;-71
2021/08/26 06:26:50;;;;;;;3.03;1.75;;;;;;;32.23;28.80;100795.09;5008463;28;20041;-71
2021/08/26 06:29:19;;;;;;;2.47;1.73;;;;;;;32.40;28.79;100786.53;5013662;28;20041;-71
2021/08/26 06:31:47;;;;;;;6.63;2.10;;;;;;;32.47;29.47;100795.13;5011403;28;20046;-72
2021/08/26 06:34:14;;;;;;;3.80;2.05;;;;;;;32.67;28.95;100796.41;5016989;28;20567;-71
2021/08/26 06:36:43;;;;;;;4.82;1.70;;;;;;;32.94;28.21;100790.69;5026164;28;20502;-71
2021/08/26 06:39:13;;;;;;;3.95;2.03;;;;;;;32.92;27.74;100793.53;5019484;28;20049;-71
2021/08/26 06:41:41;;;;;;;5.22;2.22;;;;;;;32.97;26.85;100788.56;5026208;28;20041;-71
2021/08/26 06:44:09;;;;;;;3.15;1.67;;;;;;;33.09;26.43;100787.59;5022131;28;20137;-71
2021/08/26 06:46:36;;;;;;;2.30;1.55;;;;;;;33.27;26.25;100787.22;5017337;28;20038;-71
2021/08/26 06:49:04;;;;;;;3.38;2.20;;;;;;;33.34;26.32;100792.09;5009583;28;20376;-71
2021/08/26 06:51:31;;;;;;;3.72;1.77;;;;;;;33.47;26.53;100795.59;5019029;28;20598;-69
2021/08/26 06:54:00;;;;;;;5.57;1.83;;;;;;;33.59;26.71;100791.88;5028756;28;20076;-70
2021/08/26 06:56:30;;;;;;;3.50;2.00;;;;;;;33.68;26.64;100795.72;5028607;28;20083;-70
2021/08/26 06:58:58;;;;;;;4.63;1.95;;;;;;;33.80;26.08;100785.69;5025018;28;20118;-69
2021/08/26 07:01:27;;;;;;;6.07;2.20;;;;;;;33.89;26.08;100795.88;5029954;28;20427;-71
2021/08/26 07:03:55;;;;;;;4.00;2.00;;;;;;;33.99;26.03;100797.78;5022597;28;20049;-71
2021/08/26 07:06:25;;;;;;;4.65;1.80;;;;;;;33.99;25.77;100797.78;5017999;28;20046;-71
2021/08/26 07:08:55;;;;;;;3.85;2.00;;;;;;;34.03;25.51;100798.38;5020508;28;20063;-70
2021/08/26 07:11:24;;;;;;;4.95;1.98;;;;;;;34.07;24.94;100799.88;5013697;28;20048;-72
2021/08/26 07:13:52;;;;;;;4.90;2.10;;;;;;;34.17;24.69;100798.13;5027638;28;20049;-72
2021/08/26 07:16:20;;;;;;;6.45;2.30;;;;;;;34.29;24.33;100796.25;5029261;28;20042;-73
2021/08/26 07:18:48;;;;;;;5.38;2.15;;;;;;;34.37;24.05;100802.00;5029589;28;20053;-72
2021/08/26 07:21:16;;;;;;;3.10;1.92;;;;;;;34.51;24.08;100790.75;5023685;28;20049;-71
2021/08/26 07:23:44;;;;;;;2.45;1.98;;;;;;;34.69;24.27;100794.66;5018498;28;20048;-71
2021/08/26 07:26:11;;;;;;;6.57;2.30;;;;;;;34.86;23.59;100792.38;5021120;28;20053;-72
2021/08/26 07:28:41;;;;;;;10.38;3.00;;;;;;;34.99;23.50;100780.22;5017610;28;20111;-74
2021/08/26 07:31:08;;;;;;;4.45;2.45;;;;;;;34.99;23.04;100782.97;5024961;28;20041;-74
2021/08/26 07:33:36;;;;;;;19.05;3.40;;;;;;;34.97;22.69;100782.25;5029204;28;20560;-74
2021/08/26 07:36:05;;;;;;;4.47;2.10;;;;;;;34.93;22.99;100790.84;5027226;28;20044;-73
2021/08/26 07:38:32;;;;;;;22.17;4.72;;;;;;;35.13;23.21;100790.00;5012998;28;20053;-76
2021/08/26 07:41:00;;;;;;;3.60;1.90;;;;;;;35.32;23.04;100790.16;5021486;28;20454;-74
2021/08/26 07:43:31;;;;;;;3.15;2.08;;;;;;;35.49;23.01;100786.81;5024266;28;20501;-74
2021/08/26 07:46:00;;;;;;;5.47;2.35;;;;;;;35.64;22.55;100798.34;5012283;28;20125;-75
2021/08/26 07:48:27;;;;;;;4.03;2.00;;;;;;;35.68;22.95;100804.41;5022764;28;20053;-75
2021/08/26 07:51:02;;;;;;;3.95;2.10;;;;;;;35.84;22.60;100794.69;5017739;28;20041;-75
2021/08/26 07:53:29;;;;;;;3.33;1.90;;;;;;;36.00;22.26;100798.81;5021284;28;20255;-75
2021/08/26 07:55:57;;;;;;;2.60;1.92;;;;;;;36.20;22.01;100803.41;5011101;28;20058;-75
2021/08/26 07:58:27;;;;;;;3.97;2.58;;;;;;;36.31;21.62;100784.91;5008857;28;20571;-75
2021/08/26 08:00:55;;;;;;;6.18;2.30;;;;;;;36.27;21.59;100793.59;5005457;28;20053;-75
2021/08/26 08:03:25;;;;;;;8.70;2.53;;;;;;;36.34;21.34;100800.28;5009178;28;20112;-75
2021/08/26 08:05:55;;;;;;;13.63;3.53;;;;;;;36.49;21.45;100792.50;5009980;28;20111;-76
2021/08/26 08:08:23;;;;;;;13.98;3.25;;;;;;;36.70;21.67;100796.00;5003020;28;20045;-75
2021/08/26 08:10:50;;;;;;;24.33;4.20;;;;;;;36.81;21.33;100803.28;5010621;28;20042;-75
2021/08/26 08:13:20;;;;;;;3.63;1.88;;;;;;;36.87;21.19;100802.69;5018486;28;20402;-75
2021/08/26 08:15:47;;;;;;;7.13;2.10;;;;;;;36.89;21.22;100795.19;5027710;28;20041;-75
2021/08/26 08:18:17;;;;;;;4.05;2.20;;;;;;;36.85;21.51;100801.97;5028976;28;20049;-75
2021/08/26 08:20:46;;;;;;;3.35;2.00;;;;;;;36.86;21.57;100801.84;5029315;28;20037;-75
2021/08/26 08:23:14;;;;;;;22.70;3.53;;;;;;;36.83;21.57;100807.63;5029727;28;20048;-76
2021/08/26 08:25:41;;;;;;;5.22;2.33;;;;;;;36.81;21.70;100809.66;5028725;28;20034;-74
2021/08/26 08:28:14;;;;;;;11.95;3.10;;;;;;;36.93;21.92;100802.13;5030021;28;20415;-76
2021/08/26 08:30:42;;;;;;;2.90;1.83;;;;;;;36.66;21.79;100802.81;5029634;28;20473;-76
2021/08/26 08:33:10;;;;;;;2.63;2.05;;;;;;;36.41;22.57;100804.19;5029979;28;20041;-73
2021/08/26 08:35:40;;;;;;;3.70;2.50;;;;;;;36.33;22.17;100799.41;5029558;28;20095;-75
2021/08/26 08:38:09;;;;;;;2.85;1.90;;;;;;;36.26;22.55;100803.72;5028849;28;20079;-76
2021/08/26 08:40:39;;;;;;;3.58;1.95;;;;;;;36.28;22.92;100801.72;5026705;28;20398;-75
2021/08/26 08:43:07;;;;;;;3.78;2.22;;;;;;;36.17;22.71;100803.72;5029666;28;20092;-76
2021/08/26 08:45:35;;;;;;;5.35;2.30;;;;;;;35.96;23.06;100806.50;5024078;28;20034;-72
2021/08/26 08:48:05;;;;;;;4.07;2.22;;;;;;;36.03;23.35;100799.44;5030121;28;20046;-76
2021/08/26 08:50:33;;;;;;;3.95;1.80;;;;;;;35.99;23.15;100805.31;5029530;28;20049;-74
2021/08/26 08:53:02;;;;;;;4.28;1.83;;;;;;;35.95;23.00;100802.00;5030159;28;20061;-75
2021/08/26 08:55:33;;;;;;;3.75;1.88;;;;;;;35.92;23.39;100807.75;5026759;28;20498;-75
2021/08/26 08:58:03;;;;;;;3.47;2.00;;;;;;;35.85;23.46;100806.56;5022759;28;20037;-76
2021/08/26 09:00:30;;;;;;;6.57;2.33;;;;;;;35.97;23.42;100808.22;5029779;28;20041;-75
2021/08/26 09:02:58;;;;;;;3.17;1.90;;;;;;;36.10;23.13;100825.38;5026346;28;20050;-76
2021/08/26 09:05:25;;;;;;;3.20;1.65;;;;;;;35.90;23.53;100816.16;5028279;28;20075;-76
2021/08/26 09:08:09;;;;;;;4.07;1.60;;;;;;;35.77;23.67;100820.13;5027209;28;20558;-77
2021/08/26 09:10:38;;;;;;;2.95;1.85;;;;;;;35.74;23.52;100828.66;5027973;28;20041;-74
2021/08/26 09:13:06;;;;;;;6.47;1.70;;;;;;;35.75;23.67;100830.38;5027955;28;20052;-73
2021/08/26 09:15:33;;;;;;;2.88;1.67;;;;;;;35.81;23.72;100832.59;5029683;28;20045;-76
2021/08/26 09:18:14;;;;;;;3.65;1.65;;;;;;;35.63;23.76;100829.56;5029258;28;20044;-75
2021/08/26 09:20:50;;;;;;;2.28;1.67;;;;;;;35.44;24.26;100829.44;5028917;28;20042;-75
2021/08/26 09:23:19;;;;;;;4.45;1.92;;;;;;;35.25;24.90;100835.66;5029491;28;20744;-76
2021/08/26 09:25:48;;;;;;;3.55;1.77;;;;;;;35.09;25.62;100836.09;5028616;28;20038;-76
2021/08/26 09:28:31;;;;;;;4.65;1.95;;;;;;;35.03;25.78;100820.13;5029140;28;20414;-75
2021/08/26 09:31:13;;;;;;;4.30;2.00;;;;;;;35.15;25.90;100826.44;5027348;28;20044;-75
2021/08/26 09:34:05;;;;;;;4.35;1.88;;;;;;;35.03;26.60;100824.75;5027985;28;20041;-76
2021/08/26 09:36:34;;;;;;;4.28;2.13;;;;;;;34.89;27.03;100808.59;5025589;28;20048;-76
2021/08/26 09:39:04;;;;;;;3.78;2.10;;;;;;;34.78;27.29;100810.41;5029059;28;20041;-75
2021/08/26 09:41:45;;;;;;;3.72;1.88;;;;;;;34.62;27.82;100811.78;5029274;28;20045;-75
2021/08/26 09:44:14;;;;;;;5.75;2.28;;;;;;;34.53;27.93;100818.06;5028622;28;20587;-75
2021/08/26 09:46:43;;;;;;;4.38;2.00;;;;;;;34.77;27.44;100813.25;5028165;28;20041;-76
2021/08/26 09:49:12;;;;;;;4.85;2.50;;;;;;;35.06;27.68;100827.22;5029011;28;20045;-75
2021/08/26 09:51:40;;;;;;;6.95;2.60;;;;;;;35.15;27.50;100821.81;5028831;28;20042;-74
2021/08/26 09:54:28;;;;;;;7.75;2.78;;;;;;;35.11;27.43;100820.38;5021466;28;20049;-76
2021/08/26 09:56:58;;;;;;;7.47;2.55;;;;;;;34.91;28.72;100820.31;5036982;28;20042;-75
2021/08/26 09:59:49;;;;;;;3.30;2.42;;;;;;;34.95;28.47;100813.56;5028017;28;20060;-75
2021/08/26 10:02:18;;;;;;;3.70;2.08;;;;;;;34.96;29.31;100812.56;5028749;28;20042;-74
2021/08/26 10:04:46;;;;;;;6.25;2.28;;;;;;;34.91;30.20;100815.72;5027204;28;20041;-75
2021/08/26 10:07:14;;;;;;;7.00;2.50;;;;;;;34.88;31.12;100818.69;5027195;28;20048;-74
2021/08/26 10:09:44;;;;;;;4.63;2.10;;;;;;;34.72;31.76;100805.41;5028903;28;20041;-74
2021/08/26 10:12:15;;;;;;;4.07;2.40;;;;;;;34.67;31.95;100802.16;5029073;28;20048;-74
2021/08/26 10:14:43;;;;;;;4.78;2.35;;;;;;;34.52;32.26;100797.97;5028391;28;20042;-75
2021/08/26 10:17:12;;;;;;;5.22;3.20;;;;;;;34.45;32.64;100795.88;5029516;28;20042;-76
2021/08/26 10:19:40;;;;;;;4.40;2.67;;;;;;;34.28;32.69;100797.25;5032286;28;20199;-75
2021/08/26 10:22:10;;;;;;;5.13;2.70;;;;;;;34.27;33.57;100798.25;5032520;28;20049;-75
2021/08/26 10:24:38;;;;;;;6.03;2.80;;;;;;;34.03;34.16;100794.75;5031513;28;20052;-76
2021/08/26 10:27:08;;;;;;;3.83;2.40;;;;;;;33.97;34.23;100793.41;5025870;28;20041;-74
2021/08/26 10:29:43;;;;;;;5.25;2.53;;;;;;;33.84;34.17;100793.53;5030624;28;20041;-75
2021/08/26 10:32:17;;;;;;;5.72;2.80;;;;;;;33.73;33.78;100793.53;5032422;28;20041;-76
2021/08/26 10:35:05;;;;;;;5.18;3.28;;;;;;;33.61;34.15;100792.59;5032450;28;20044;-76
2021/08/26 10:37:45;;;;;;;8.07;3.05;;;;;;;33.64;33.57;100783.28;5032510;28;20498;-76
2021/08/26 10:40:41;;;;;;;6.70;2.40;;;;;;;33.54;33.55;100791.34;5026971;28;20462;-76
2021/08/26 10:43:32;;;;;;;4.15;3.03;;;;;;;33.52;34.20;100787.00;5008006;28;20042;-76
2021/08/26 10:46:02;;;;;;;5.22;3.05;;;;;;;33.61;33.99;100799.94;5031711;28;20360;-76
2021/08/26 10:48:29;;;;;;;5.43;3.10;;;;;;;33.57;33.72;100787.50;5031984;28;20037;-77
2021/08/26 10:51:09;;;;;;;8.38;3.00;;;;;;;33.62;33.94;100796.22;5031755;28;20048;-75
2021/08/26 10:53:38;;;;;;;5.75;3.55;;;;;;;33.69;34.14;100797.47;5030901;28;20041;-76
2021/08/26 10:56:21;;;;;;;5.03;2.70;;;;;;;33.64;33.92;100796.97;5031969;28;20037;-75
2021/08/26 10:58:49;;;;;;;7.30;2.93;;;;;;;33.68;33.96;100795.72;5031524;28;20096;-76
2021/08/26 11:01:35;;;;;;;6.53;2.63;;;;;;;33.81;34.97;100798.38;5030916;28;20056;-75
2021/08/26 11:04:08;;;;;;;4.15;3.33;;;;;;;33.70;35.22;100795.59;5031388;28;20464;-76
2021/08/26 11:06:45;;;;;;;5.05;3.15;;;;;;;33.77;34.41;100791.41;5031764;28;20037;-75
2021/08/26 11:09:36;;;;;;;7.45;2.90;;;;;;;34.10;33.44;100788.66;5031465;28;20046;-77
2021/08/26 11:12:26;;;;;;;4.68;2.58;;;;;;;34.42;33.24;100796.97;5030086;28;20046;-69
2021/08/26 11:14:59;;;;;;;5.85;3.15;;;;;;;34.37;33.98;100791.03;5030361;28;20071;-76
2021/08/26 11:17:34;;;;;;;5.55;3.17;;;;;;;34.23;33.74;100789.44;5027528;28;20049;-77
2021/08/26 11:20:28;;;;;;;5.45;2.70;;;;;;;34.27;32.99;100790.91;5031762;28;20441;-75
2021/08/26 11:23:09;;;;;;;5.72;2.80;;;;;;;34.35;33.29;100793.00;5020348;28;21393;-76
2021/08/26 11:25:37;;;;;;;6.10;3.28;;;;;;;34.35;33.63;100782.03;5030946;28;20458;-75
2021/08/26 11:28:32;;;;;;;5.95;3.20;;;;;;;34.65;33.06;100782.22;5030963;28;20030;-76
2021/08/26 11:31:22;;;;;;;5.68;3.15;;;;;;;34.74;33.32;100781.47;5029486;28;20115;-77
2021/08/26 11:33:52;;;;;;;6.50;2.72;;;;;;;34.81;33.68;100783.66;5031082;28;20678;-75
2021/08/26 11:36:23;;;;;;;4.25;2.90;;;;;;;34.72;33.91;100772.47;5027595;28;20073;-75
2021/08/26 11:38:53;;;;;;;7.32;3.05;;;;;;;34.97;32.90;100774.00;5030656;28;20041;-75
2021/08/26 11:41:21;;;;;;;3.65;3.00;;;;;;;34.98;32.87;100764.78;5031687;28;20037;-76